Time;durP1;ratioP1;P1;durP2;ratioP2;P2;SDS_P1;SDS_P2;PMS_P1;PMS_P2;Temp;Humidity;BMP_temperature;BMP_pressure;BME280_temperature;BME280_humidity;BME280_pressure;Samples;Min_cycle;Max_cycle;Signal;HPM_P1;HPM_P2
2021/01/23 00:01:10;;;;;;;15.20;8.35;;;;;;;5.25;58.82;99609.13;4960077;28;114156;-68
2021/01/23 00:03:36;;;;;;;16.42;8.00;;;;;;;5.25;58.91;99614.38;4959211;28;123633;-67
2021/01/23 00:06:03;;;;;;;14.80;8.88;;;;;;;5.28;58.92;99607.28;4961080;28;124392;-68
2021/01/23 00:08:29;;;;;;;14.88;8.68;;;;;;;5.29;59.07;99616.84;4950988;28;114643;-68
2021/01/23 00:10:56;;;;;;;18.65;8.35;;;;;;;5.26;59.13;99610.81;4949501;28;112861;-68
2021/01/23 00:13:41;;;;;;;15.38;8.15;;;;;;;5.24;58.89;99607.41;4963643;28;124744;-68
2021/01/23 00:16:07;;;;;;;16.27;8.90;;;;;;;5.23;59.11;99610.94;4965112;28;123910;-68
2021/01/23 00:18:34;;;;;;;18.83;8.88;;;;;;;5.21;59.01;99607.50;4953731;28;113747;-68
2021/01/23 00:21:01;;;;;;;22.48;9.20;;;;;;;5.21;59.18;99607.50;4964851;28;114064;-67
2021/01/23 00:23:28;;;;;;;18.25;8.95;;;;;;;5.21;59.41;99602.25;4951347;28;123714;-67
2021/01/23 00:25:54;;;;;;;19.75;8.98;;;;;;;5.21;59.22;99602.25;4955290;28;122700;-68
2021/01/23 00:28:21;;;;;;;17.02;9.50;;;;;;;5.23;59.54;99605.69;4935635;28;114125;-67
2021/01/23 00:30:48;;;;;;;15.20;9.02;;;;;;;5.24;59.47;99606.56;4967119;28;114774;-67
2021/01/23 00:33:15;;;;;;;17.80;9.05;;;;;;;5.24;59.54;99612.66;4963029;28;123137;-67
2021/01/23 00:35:41;;;;;;;16.20;9.23;;;;;;;5.25;59.26;99609.13;4964598;28;124114;-67
2021/01/23 00:38:08;;;;;;;20.30;9.10;;;;;;;5.25;59.63;99603.88;4953205;28;114406;-67
2021/01/23 00:40:35;;;;;;;19.33;9.35;;;;;;;5.25;59.55;99603.88;4966342;28;113418;-67
2021/01/23 00:43:02;;;;;;;16.55;9.75;;;;;;;5.26;59.76;99597.69;4966135;28;123949;-67
2021/01/23 00:45:29;;;;;;;15.88;9.02;;;;;;;5.28;59.59;99596.78;4945295;28;124782;-68
2021/01/23 00:47:55;;;;;;;19.58;9.90;;;;;;;5.28;59.35;99586.28;4968253;28;114654;-68
2021/01/23 00:50:22;;;;;;;18.38;9.73;;;;;;;5.28;59.75;99591.53;4936249;28;113174;-67
2021/01/23 00:52:49;;;;;;;18.35;9.50;;;;;;;5.29;59.80;99590.59;4951962;28;123839;-67
2021/01/23 00:55:16;;;;;;;18.48;9.93;;;;;;;5.30;59.75;99594.94;4962422;28;124231;-67
2021/01/23 00:57:43;;;;;;;16.42;9.88;;;;;;;5.31;59.91;99594.00;4959654;28;113714;-67
2021/01/23 01:00:14;;;;;;;17.92;9.85;;;;;;;5.33;60.00;99590.41;4953995;28;113156;-67
2021/01/23 01:02:43;;;;;;;20.27;10.23;;;;;;;5.35;59.86;99579.81;4937309;28;125180;-67
2021/01/23 01:05:22;;;;;;;16.73;10.13;;;;;;;5.37;59.70;99585.84;4951702;28;123597;-67
2021/01/23 01:07:49;;;;;;;17.70;9.98;;;;;;;5.39;60.06;99579.63;4954791;28;113381;-67
2021/01/23 01:10:15;;;;;;;22.52;10.73;;;;;;;5.40;60.09;99572.59;4952073;28;113969;-67
2021/01/23 01:12:42;;;;;;;22.95;10.23;;;;;;;5.43;60.02;99569.84;4948756;28;123011;-67
2021/01/23 01:15:09;;;;;;;18.85;10.95;;;;;;;5.45;59.87;99571.47;4962606;28;124495;-67
2021/01/23 01:17:36;;;;;;;18.48;10.60;;;;;;;5.46;60.11;99572.31;4960968;28;115475;-67
2021/01/23 01:20:06;;;;;;;20.38;10.77;;;;;;;5.48;59.92;99567.84;4951637;28;114797;-67
2021/01/23 01:22:34;;;;;;;21.08;10.95;;;;;;;5.50;60.11;99571.28;4960617;28;124794;-67
2021/01/23 01:25:00;;;;;;;17.90;10.27;;;;;;;5.50;60.00;99571.28;4949602;28;123858;-67
2021/01/23 01:27:27;;;;;;;20.70;10.65;;;;;;;5.52;60.35;99568.56;4963916;28;114181;-67
2021/01/23 01:29:53;;;;;;;17.88;10.75;;;;;;;5.53;60.02;99573.75;4961934;28;115057;-68
2021/01/23 01:32:20;;;;;;;17.27;10.65;;;;;;;5.54;59.86;99578.09;4952009;28;123042;-67
2021/01/23 01:34:47;;;;;;;20.05;10.65;;;;;;;5.55;59.96;99568.44;4962594;28;123804;-69
2021/01/23 01:37:13;;;;;;;17.98;9.52;;;;;;;5.57;59.99;99569.22;4965624;28;113112;-68
2021/01/23 01:39:40;;;;;;;16.75;10.07;;;;;;;5.59;60.19;99570.00;4961555;28;113761;-68
2021/01/23 01:42:07;;;;;;;21.98;10.15;;;;;;;5.61;59.89;99574.28;4950353;28;124101;-68
2021/01/23 01:44:34;;;;;;;18.00;9.55;;;;;;;5.62;60.11;99570.72;4950206;28;122900;-68
2021/01/23 01:47:00;;;;;;;19.08;9.73;;;;;;;5.63;59.83;99572.44;4953117;28;114131;-67
2021/01/23 01:49:29;;;;;;;17.63;9.50;;;;;;;5.64;60.02;99574.13;4962651;28;113887;-67
2021/01/23 01:51:56;;;;;;;18.88;10.02;;;;;;;5.65;60.18;99569.72;4950240;28;123505;-67
2021/01/23 01:54:24;;;;;;;15.98;9.38;;;;;;;5.66;60.31;99569.66;4949373;28;122725;-67
2021/01/23 01:56:52;;;;;;;16.60;9.13;;;;;;;5.69;60.21;99580.94;4963283;28;114405;-68
2021/01/23 01:59:19;;;;;;;17.40;9.27;;;;;;;5.69;60.04;99565.16;4964794;28;113891;-68
2021/01/23 02:01:45;;;;;;;19.15;9.25;;;;;;;5.71;60.40;99566.81;4962423;28;123795;-68
2021/01/23 02:04:43;;;;;;;15.20;9.65;;;;;;;5.72;59.99;99572.94;4960108;28;125091;-67
2021/01/23 02:07:22;;;;;;;17.67;8.77;;;;;;;5.72;60.39;99565.03;4961624;28;115142;-67
2021/01/23 02:10:19;;;;;;;19.77;8.77;;;;;;;5.71;60.00;99558.06;4953037;28;113088;-67
2021/01/23 02:13:20;;;;;;;13.15;9.07;;;;;;;5.71;60.12;99563.31;4960780;28;124215;-68
2021/01/23 02:15:53;;;;;;;13.15;8.02;;;;;;;5.73;60.25;99564.13;4962781;28;124243;-67
2021/01/23 02:18:24;;;;;;;18.55;8.50;;;;;;;5.73;60.14;99551.00;4950669;28;114685;-68
2021/01/23 02:21:07;;;;;;;14.45;8.10;;;;;;;5.73;60.17;99545.75;4962415;28;114431;-68
2021/01/23 02:23:45;;;;;;;14.70;8.93;;;;;;;5.76;60.54;99545.59;4956264;28;124353;-67
2021/01/23 02:26:18;;;;;;;14.40;8.05;;;;;;;5.78;60.30;99543.75;4961185;28;124552;-67
2021/01/23 02:29:11;;;;;;;15.98;8.60;;;;;;;5.80;60.51;99549.78;4961108;28;114499;-67
2021/01/23 02:31:41;;;;;;;18.05;8.98;;;;;;;5.83;60.41;99558.38;4965594;28;114839;-67
2021/01/23 02:34:13;;;;;;;15.77;8.38;;;;;;;5.84;60.44;99554.00;4962113;28;123882;-67
2021/01/23 02:36:41;;;;;;;16.70;8.98;;;;;;;5.87;60.40;99551.19;4962531;28;124274;-67
2021/01/23 02:39:11;;;;;;;15.13;8.65;;;;;;;5.90;60.53;99547.59;4948814;28;113163;-68
2021/01/23 02:41:38;;;;;;;17.40;8.95;;;;;;;5.91;60.66;99539.63;4948212;28;113932;-68
2021/01/23 02:44:04;;;;;;;14.38;9.02;;;;;;;5.95;60.67;99541.22;4962568;28;124632;-68
2021/01/23 02:46:31;;;;;;;17.17;8.60;;;;;;;5.99;60.67;99542.78;4964094;28;123473;-68
2021/01/23 02:48:58;;;;;;;18.85;8.57;;;;;;;6.02;60.70;99547.88;4963012;28;114821;-68
2021/01/23 02:51:35;;;;;;;16.90;8.88;;;;;;;6.06;60.50;99553.00;4965251;28;113723;-68
2021/01/23 02:54:14;;;;;;;16.88;8.45;;;;;;;6.09;60.88;99552.88;4960766;28;124652;-68
2021/01/23 02:56:43;;;;;;;16.08;8.32;;;;;;;6.12;60.83;99553.56;4951618;28;123666;-68
2021/01/23 02:59:11;;;;;;;16.77;8.27;;;;;;;6.17;60.97;99555.97;4957980;28;115067;-68
2021/01/23 03:01:41;;;;;;;16.08;8.77;;;;;;;6.19;60.72;99554.13;4944534;28;115459;-68
2021/01/23 03:04:09;;;;;;;16.95;8.77;;;;;;;6.22;60.57;99554.81;4934585;28;124475;-68
2021/01/23 03:06:39;;;;;;;17.58;8.85;;;;;;;6.24;60.77;99552.13;4960291;28;123971;-68
2021/01/23 03:09:23;;;;;;;14.05;8.70;;;;;;;6.26;60.50;99549.44;4963141;28;114250;-69
2021/01/23 03:11:51;;;;;;;14.65;8.30;;;;;;;6.29;60.92;99555.41;4961778;28;114290;-68
2021/01/23 03:14:21;;;;;;;16.65;8.27;;;;;;;6.30;60.67;99546.56;4948546;28;124184;-69
2021/01/23 03:16:53;;;;;;;14.07;8.52;;;;;;;6.34;60.81;99542.84;4959956;28;123880;-69
2021/01/23 03:19:21;;;;;;;18.55;9.13;;;;;;;6.37;60.60;99541.88;4961370;28;114379;-69
2021/01/23 03:21:48;;;;;;;13.20;8.13;;;;;;;6.39;60.79;99540.88;4950898;28;112090;-68
2021/01/23 03:24:16;;;;;;;15.77;8.50;;;;;;;6.42;60.73;99535.47;4961012;28;124304;-68
2021/01/23 03:26:44;;;;;;;15.38;8.40;;;;;;;6.45;60.57;99533.63;4957181;28;123723;-68
2021/01/23 03:29:11;;;;;;;16.67;8.55;;;;;;;6.48;60.60;99538.69;4958786;28;114802;-69
2021/01/23 03:31:38;;;;;;;12.50;8.95;;;;;;;6.51;60.62;99538.56;4946562;28;113106;-68
2021/01/23 03:34:05;;;;;;;15.73;8.63;;;;;;;6.53;60.86;99541.97;4961314;28;124642;-69
2021/01/23 03:36:32;;;;;;;18.55;9.20;;;;;;;6.56;60.64;99544.47;4961784;28;124407;-68
2021/01/23 03:38:59;;;;;;;18.65;9.00;;;;;;;6.58;60.74;99532.06;4947966;28;113080;-69
2021/01/23 03:41:27;;;;;;;15.05;8.07;;;;;;;6.60;60.80;99538.09;4964543;28;113810;-69
2021/01/23 03:43:53;;;;;;;15.40;8.90;;;;;;;6.62;60.84;99536.25;4963142;28;124582;-68
2021/01/23 03:46:20;;;;;;;16.20;8.98;;;;;;;6.66;60.96;99532.53;4952892;28;123593;-68
2021/01/23 03:48:47;;;;;;;14.90;9.07;;;;;;;6.68;60.73;99533.31;4965771;28;116193;-68
2021/01/23 03:51:13;;;;;;;16.25;8.73;;;;;;;6.72;60.78;99531.38;4963512;28;115088;-68
2021/01/23 03:53:40;;;;;;;17.08;8.85;;;;;;;6.73;60.84;99523.41;4944605;28;123937;-68
2021/01/23 03:56:07;;;;;;;17.38;8.82;;;;;;;6.75;60.69;99521.56;4961992;28;124591;-68
2021/01/23 03:58:34;;;;;;;13.98;8.77;;;;;;;6.77;60.90;99514.44;4951777;28;115074;-68
2021/01/23 04:01:04;;;;;;;17.33;9.07;;;;;;;6.79;60.97;99517.81;4965674;28;114046;-68
2021/01/23 04:03:31;;;;;;;13.32;8.73;;;;;;;6.83;60.57;99508.84;4954047;28;122771;-68
2021/01/23 04:05:57;;;;;;;16.05;9.02;;;;;;;6.85;60.85;99510.56;4963735;28;125249;-68
2021/01/23 04:08:24;;;;;;;13.25;8.43;;;;;;;6.88;60.86;99515.69;4955357;28;114444;-68
2021/01/23 04:10:51;;;;;;;16.40;8.90;;;;;;;6.89;60.75;99501.56;4955555;28;112844;-69
2021/01/23 04:13:17;;;;;;;22.60;8.88;;;;;;;6.91;60.70;99505.84;4962004;28;125160;-68
2021/01/23 04:15:44;;;;;;;13.13;8.88;;;;;;;6.93;60.96;99487.31;4962950;28;123404;-68
2021/01/23 04:18:11;;;;;;;15.45;8.88;;;;;;;6.95;60.76;99493.34;4962301;28;114558;-68
2021/01/23 04:20:38;;;;;;;16.17;8.95;;;;;;;6.97;61.06;99491.53;4963519;28;115431;-69
2021/01/23 04:23:04;;;;;;;12.85;8.80;;;;;;;6.97;61.04;99489.72;4964135;28;124233;-68
2021/01/23 04:25:31;;;;;;;14.00;8.30;;;;;;;7.01;60.65;99485.16;4950113;28;123895;-67
2021/01/23 04:27:58;;;;;;;15.77;8.77;;;;;;;7.02;60.70;99492.09;4963976;28;114005;-68
2021/01/23 04:30:24;;;;;;;15.70;9.05;;;;;;;7.03;60.86;99501.72;4954763;28;114312;-68
2021/01/23 04:32:51;;;;;;;14.60;9.20;;;;;;;7.05;60.76;99497.22;4951083;28;123843;-67
2021/01/23 04:35:18;;;;;;;17.75;9.32;;;;;;;7.05;60.42;99491.97;4962261;28;123105;-66
2021/01/23 04:37:45;;;;;;;15.63;8.93;;;;;;;7.05;60.63;99491.97;4954467;28;115238;-68
2021/01/23 04:40:13;;;;;;;13.70;9.40;;;;;;;7.06;60.82;99483.13;4947716;28;114693;-67
2021/01/23 04:42:42;;;;;;;12.30;8.52;;;;;;;7.08;60.86;99475.13;4953109;28;122987;-67
2021/01/23 04:45:12;;;;;;;18.55;9.88;;;;;;;7.09;60.66;99482.97;4961886;28;124107;-67
2021/01/23 04:47:40;;;;;;;14.55;9.38;;;;;;;7.09;60.73;99482.13;4940513;28;113960;-67
2021/01/23 04:50:09;;;;;;;15.60;9.30;;;;;;;7.08;60.53;99481.25;4952934;28;113630;-68
2021/01/23 04:52:40;;;;;;;14.43;9.63;;;;;;;7.08;60.72;99483.88;4963629;28;123841;-67
2021/01/23 04:55:09;;;;;;;15.95;9.48;;;;;;;7.08;60.71;99473.34;4951476;28;123939;-67
2021/01/23 04:57:36;;;;;;;15.13;9.48;;;;;;;7.08;60.65;99470.72;4955718;28;114627;-67
2021/01/23 05:00:05;;;;;;;14.52;9.32;;;;;;;7.09;60.71;99472.44;4961173;28;113202;-67
2021/01/23 05:02:33;;;;;;;15.10;9.18;;;;;;;7.09;60.49;99467.16;4950802;28;123638;-68
2021/01/23 05:05:02;;;;;;;17.52;9.57;;;;;;;7.10;60.69;99473.28;4948892;28;124456;-68
2021/01/23 05:07:47;;;;;;;17.48;9.65;;;;;;;7.09;60.33;99477.69;4945202;28;114431;-67
2021/01/23 05:10:28;;;;;;;15.18;9.25;;;;;;;7.08;60.45;99469.88;4952148;28;113217;-67
2021/01/23 05:12:56;;;;;;;13.95;9.32;;;;;;;7.07;60.60;99484.00;4951449;28;123848;-67
2021/01/23 05:15:28;;;;;;;14.52;10.00;;;;;;;7.05;60.33;99481.44;4947643;28;123266;-67
2021/01/23 05:18:14;;;;;;;14.68;9.55;;;;;;;7.03;60.66;99478.03;4965255;28;114618;-67
2021/01/23 05:20:42;;;;;;;;;;;;;;;7.01;60.26;99469.38;4962358;28;113929;-67
2021/01/23 05:23:13;;;;;;;15.27;9.43;;;;;;;7.02;60.61;99476.31;4949844;28;124792;-67
2021/01/23 05:25:41;;;;;;;16.00;9.48;;;;;;;7.01;60.68;99479.88;4941937;22;122179;-76
2021/01/23 05:28:10;;;;;;;14.82;9.65;;;;;;;6.98;60.40;99470.34;4951465;28;116534;-76
2021/01/23 05:30:44;;;;;;;19.95;10.48;;;;;;;6.96;60.85;99471.38;4923047;28;114756;-76
2021/01/23 05:33:14;;;;;;;16.98;10.10;;;;;;;6.94;60.37;99473.25;4949877;28;123465;-76
2021/01/23 05:35:42;;;;;;;18.27;10.02;;;;;;;6.94;60.63;99467.97;4946750;28;124477;-76
2021/01/23 05:38:23;;;;;;;17.05;10.00;;;;;;;6.91;60.62;99462.88;4952966;28;114192;-76
2021/01/23 05:40:52;;;;;;;17.65;9.80;;;;;;;6.90;60.92;99461.19;4948365;28;113179;-76
2021/01/23 05:43:49;;;;;;;22.60;10.85;;;;;;;6.86;60.54;99459.63;4949156;28;123513;-76
2021/01/23 05:46:29;;;;;;;15.95;9.80;;;;;;;6.87;60.54;99464.81;4914036;28;123074;-76
2021/01/23 05:48:57;;;;;;;16.88;10.18;;;;;;;6.86;60.61;99459.63;4934770;28;113430;-76
2021/01/23 05:51:24;;;;;;;17.52;10.38;;;;;;;6.83;60.49;99456.22;4945849;28;112811;-76
2021/01/23 05:53:51;;;;;;;18.67;10.27;;;;;;;6.84;60.79;99462.34;4919797;28;123821;-76
2021/01/23 05:56:17;;;;;;;18.50;10.30;;;;;;;6.82;60.98;99462.41;4933166;28;122781;-76
2021/01/23 05:58:45;;;;;;;18.13;10.63;;;;;;;6.81;60.85;99462.50;4926189;28;113211;-76
2021/01/23 06:01:15;;;;;;;19.05;10.65;;;;;;;6.80;60.98;99466.91;4953832;28;114429;-76
2021/01/23 06:03:44;;;;;;;21.02;11.05;;;;;;;6.78;60.95;99463.50;4947854;28;123691;-77
2021/01/23 06:06:11;;;;;;;21.35;10.88;;;;;;;6.77;61.07;99464.44;4922336;28;124590;-76
2021/01/23 06:08:46;;;;;;;17.60;10.95;;;;;;;6.77;60.86;99469.69;4952920;28;114341;-76
2021/01/23 06:11:18;;;;;;;21.58;10.73;;;;;;;6.77;60.94;99469.69;4920053;28;113916;-76
2021/01/23 06:13:51;;;;;;;16.88;10.50;;;;;;;6.76;60.90;99470.63;4949141;28;127212;-76
2021/01/23 06:16:33;;;;;;;19.90;10.40;;;;;;;6.75;61.18;99476.81;4934285;28;123743;-76
2021/01/23 06:19:06;;;;;;;19.10;10.07;;;;;;;6.74;60.87;99472.50;4943475;28;114280;-76
2021/01/23 06:21:42;;;;;;;22.20;11.27;;;;;;;6.73;61.15;99473.41;4950073;28;115075;-76
2021/01/23 06:24:10;;;;;;;17.15;10.52;;;;;;;6.74;60.98;99472.50;4931670;28;123641;-76
2021/01/23 06:26:52;;;;;;;18.58;10.50;;;;;;;6.74;61.23;99477.75;4948544;28;124476;-76
2021/01/23 06:29:30;;;;;;;17.75;10.88;;;;;;;6.72;60.93;99476.97;4934833;28;113975;-76
2021/01/23 06:32:18;;;;;;;20.38;10.77;;;;;;;6.72;61.09;99474.34;4950079;28;113576;-76
2021/01/23 06:34:45;;;;;;;18.35;9.98;;;;;;;6.73;61.20;99480.47;4921615;28;124255;-76
2021/01/23 06:37:22;;;;;;;17.05;10.68;;;;;;;6.71;60.86;99483.16;4949995;28;122974;-76
2021/01/23 06:40:11;;;;;;;18.95;10.82;;;;;;;6.71;61.25;99485.81;4949237;28;114293;-76
2021/01/23 06:42:48;;;;;;;18.85;10.70;;;;;;;6.71;61.10;99485.81;4934358;28;114072;-76
2021/01/23 06:45:23;;;;;;;18.92;10.45;;;;;;;6.70;61.03;99483.25;4944223;28;124335;-76
2021/01/23 06:47:55;;;;;;;17.40;11.00;;;;;;;6.69;61.04;99485.03;4945328;28;124057;-76
2021/01/23 06:50:33;;;;;;;17.92;10.43;;;;;;;6.69;61.27;99490.28;4922722;28;114060;-76
2021/01/23 06:53:01;;;;;;;18.25;11.23;;;;;;;6.70;61.13;99486.72;4925364;28;112786;-76
2021/01/23 06:55:39;;;;;;;18.60;10.40;;;;;;;6.70;61.32;99491.97;4935403;28;122876;-76
2021/01/23 06:58:13;;;;;;;21.35;10.43;;;;;;;6.70;61.08;99497.25;4948658;28;124020;-76
2021/01/23 07:00:40;;;;;;;21.15;10.63;;;;;;;6.70;60.99;99497.25;4917559;28;113937;-77
2021/01/23 07:03:08;;;;;;;19.92;10.70;;;;;;;6.70;61.36;99507.75;4948833;28;113750;-76
2021/01/23 07:05:44;;;;;;;18.77;11.02;;;;;;;6.70;61.19;99507.75;4935421;28;124621;-76
2021/01/23 07:08:28;;;;;;;16.38;10.18;;;;;;;6.71;61.47;99512.13;4932170;28;124155;-76
2021/01/23 07:11:17;;;;;;;19.77;10.90;;;;;;;6.73;61.49;99512.88;4934256;28;114440;-76
2021/01/23 07:14:06;;;;;;;17.73;10.25;;;;;;;6.76;61.26;99518.00;4950520;28;114188;-76
2021/01/23 07:16:39;;;;;;;16.08;10.40;;;;;;;6.79;61.61;99523.09;4948060;28;124299;-76
2021/01/23 07:19:07;;;;;;;16.42;10.43;;;;;;;6.83;61.35;99513.25;4944584;28;123373;-77
2021/01/23 07:21:38;;;;;;;19.80;10.52;;;;;;;6.86;61.66;99517.53;4934579;28;114244;-76
2021/01/23 07:24:09;;;;;;;19.50;10.60;;;;;;;6.89;61.73;99517.34;4949808;28;114850;-76
2021/01/23 07:26:36;;;;;;;18.60;10.80;;;;;;;6.90;61.62;99514.66;4931836;28;123816;-76
2021/01/23 07:29:03;;;;;;;19.42;9.90;;;;;;;6.93;61.76;99513.63;4950731;28;123705;-76
2021/01/23 07:31:31;;;;;;;16.55;9.07;;;;;;;6.97;61.65;99515.22;4951293;28;114661;-76
2021/01/23 07:34:00;;;;;;;17.15;10.23;;;;;;;7.00;61.82;99515.03;4929495;28;112950;-76
2021/01/23 07:36:32;;;;;;;17.23;10.10;;;;;;;7.01;61.49;99522.00;4946178;28;124360;-76
2021/01/23 07:39:01;;;;;;;15.98;9.43;;;;;;;7.05;61.58;99522.72;4931815;28;123562;-76
2021/01/23 07:41:33;;;;;;;16.30;9.98;;;;;;;7.07;61.43;99511.16;4937471;28;113070;-76
2021/01/23 07:44:00;;;;;;;17.15;9.52;;;;;;;7.09;61.49;99514.56;4949554;28;113830;-76
2021/01/23 07:46:41;;;;;;;15.38;9.68;;;;;;;7.11;61.29;99512.69;4946565;28;123933;-76
2021/01/23 07:49:20;;;;;;;16.83;9.55;;;;;;;7.15;61.71;99521.28;4919980;28;123360;-76
2021/01/23 07:51:46;;;;;;;17.52;9.75;;;;;;;7.17;61.79;99522.88;4949245;28;114504;-77
2021/01/23 07:54:14;;;;;;;19.40;9.77;;;;;;;7.20;61.59;99528.00;4933461;28;112414;-77
2021/01/23 07:56:56;;;;;;;18.98;9.57;;;;;;;7.20;61.34;99517.47;4958945;28;124000;-77
2021/01/23 07:59:44;;;;;;;14.57;9.50;;;;;;;7.21;61.51;99513.94;4952302;28;124447;-77
2021/01/23 08:02:11;;;;;;;17.20;9.40;;;;;;;7.24;61.54;99517.31;4946582;28;116029;-76
2021/01/23 08:04:40;;;;;;;16.40;9.23;;;;;;;7.24;61.51;99517.31;4934101;28;114002;-76
2021/01/23 08:07:24;;;;;;;17.00;9.57;;;;;;;7.21;61.36;99513.94;4919102;28;123633;-76
2021/01/23 08:10:19;;;;;;;15.32;9.23;;;;;;;7.21;61.07;99513.94;4950265;28;123854;-76
2021/01/23 08:13:03;;;;;;;16.55;9.20;;;;;;;7.19;61.15;99518.41;4930675;28;113782;-76
2021/01/23 08:15:31;;;;;;;16.77;10.00;;;;;;;7.20;61.02;99517.47;4942172;28;114293;-76
2021/01/23 08:17:59;;;;;;;16.17;9.45;;;;;;;7.21;61.09;99513.94;4951435;28;124285;-76
2021/01/23 08:20:31;;;;;;;17.23;9.60;;;;;;;7.21;61.03;99508.66;4914589;28;122997;-76
2021/01/23 08:23:07;;;;;;;14.43;9.55;;;;;;;7.21;61.27;99508.66;4918474;28;113430;-75
2021/01/23 08:25:36;;;;;;;16.50;9.82;;;;;;;7.22;61.16;99499.81;4912795;28;113231;-77
2021/01/23 08:28:05;;;;;;;15.80;9.23;;;;;;;7.21;61.21;99503.41;4954781;28;123744;-76
2021/01/23 08:30:32;;;;;;;17.65;9.40;;;;;;;7.21;60.88;99508.66;4951709;28;124603;-76
2021/01/23 08:33:02;;;;;;;17.70;9.93;;;;;;;7.21;61.07;99506.03;4930811;28;114677;-76
2021/01/23 08:35:31;;;;;;;16.92;9.90;;;;;;;7.22;60.99;99505.06;4937906;28;114005;-76
2021/01/23 08:37:58;;;;;;;16.92;9.60;;;;;;;7.22;61.18;99505.06;4932328;28;123839;-77
2021/01/23 08:40:25;;;;;;;14.52;9.10;;;;;;;7.22;61.29;99505.06;4947185;28;123849;-77
2021/01/23 08:42:51;;;;;;;14.93;9.05;;;;;;;7.22;61.27;99499.81;4920166;28;113426;-77
2021/01/23 08:45:22;;;;;;;19.10;10.30;;;;;;;7.22;61.03;99499.81;4932171;28;114285;-76
2021/01/23 08:48:01;;;;;;;15.63;9.40;;;;;;;7.21;61.00;99498.13;4953066;28;123991;-79
2021/01/23 08:50:29;;;;;;;20.58;9.50;;;;;;;7.24;61.20;99501.53;4934621;28;123241;-77
2021/01/23 08:52:55;;;;;;;17.02;9.02;;;;;;;7.24;61.27;99501.53;4947455;28;115726;-77
2021/01/23 08:55:22;;;;;;;18.10;9.90;;;;;;;7.27;61.31;99501.34;4921232;28;114354;-77
2021/01/23 08:57:49;;;;;;;16.45;9.35;;;;;;;7.30;61.06;99506.47;4952033;28;123776;-77
2021/01/23 09:00:16;;;;;;;19.48;9.30;;;;;;;7.32;61.19;99504.59;4953805;28;123733;-77
2021/01/23 09:02:42;;;;;;;15.70;9.07;;;;;;;7.34;61.57;99502.72;4935061;28;114080;-77
2021/01/23 09:05:11;;;;;;;15.90;9.05;;;;;;;7.38;61.37;99505.13;4945094;28;113173;-77
2021/01/23 09:07:39;;;;;;;14.15;8.45;;;;;;;7.43;61.09;99502.25;4921706;28;123257;-77
2021/01/23 09:10:11;;;;;;;15.25;9.50;;;;;;;7.46;61.33;99494.19;4953223;28;123870;-76
2021/01/23 09:12:39;;;;;;;21.23;9.05;;;;;;;7.48;61.07;99494.94;4918869;28;112858;-77
2021/01/23 09:15:09;;;;;;;16.90;8.50;;;;;;;7.50;61.05;99493.06;4925121;28;113741;-77
2021/01/23 09:17:36;;;;;;;16.35;9.27;;;;;;;7.54;61.31;99499.88;4936115;28;123406;-77
2021/01/23 09:20:03;;;;;;;15.35;8.73;;;;;;;7.56;61.15;99492.75;4929824;28;123285;-77
2021/01/23 09:22:30;;;;;;;16.98;8.10;;;;;;;7.58;61.32;99490.88;4932727;28;113595;-78
2021/01/23 09:24:59;;;;;;;16.15;8.65;;;;;;;7.63;61.31;99495.03;4937789;28;114488;-77
2021/01/23 09:27:27;;;;;;;14.95;8.10;;;;;;;7.67;61.56;99499.22;4950011;28;124112;-76
2021/01/23 09:29:56;;;;;;;12.50;7.55;;;;;;;7.70;60.92;99496.41;4927165;28;125795;-76
2021/01/23 09:32:22;;;;;;;14.57;8.23;;;;;;;7.73;61.18;99496.25;4914280;28;113326;-77
2021/01/23 09:34:49;;;;;;;14.77;8.15;;;;;;;7.77;61.04;99495.13;4958500;28;113968;-77
2021/01/23 09:37:16;;;;;;;18.08;8.27;;;;;;;7.81;61.33;99496.66;4926579;28;123082;-77
2021/01/23 09:39:42;;;;;;;16.13;7.60;;;;;;;7.85;61.33;99492.06;4931471;28;122182;-77
2021/01/23 09:42:10;;;;;;;13.82;8.23;;;;;;;7.87;61.13;99496.31;4939075;28;114107;-77
2021/01/23 09:44:36;;;;;;;14.38;8.15;;;;;;;7.90;61.02;99490.88;4957042;28;114200;-77
2021/01/23 09:47:03;;;;;;;16.17;7.85;;;;;;;7.93;61.24;99485.44;4951755;28;124747;-77
2021/01/23 09:49:30;;;;;;;13.73;7.68;;;;;;;7.95;61.00;99488.84;4928501;28;122314;-77
2021/01/23 09:51:56;;;;;;;12.30;7.78;;;;;;;7.96;60.95;99479.97;4952481;28;114235;-77
2021/01/23 09:54:23;;;;;;;15.68;7.72;;;;;;;8.01;61.02;99486.81;4951039;28;113751;-77
2021/01/23 09:57:03;;;;;;;13.73;7.47;;;;;;;8.05;60.97;99485.69;4952043;28;123935;-77
2021/01/23 09:59:30;;;;;;;15.95;7.63;;;;;;;8.09;60.95;99484.56;4951970;28;123915;-77
2021/01/23 10:02:01;;;;;;;15.35;7.78;;;;;;;8.12;60.92;99484.41;4933155;28;113532;-76
2021/01/23 10:04:28;;;;;;;12.18;7.53;;;;;;;8.16;60.63;99480.66;4917985;28;114416;-77
2021/01/23 10:06:55;;;;;;;11.98;7.10;;;;;;;8.21;60.58;99494.41;4921973;28;123040;-77
2021/01/23 10:09:22;;;;;;;10.93;6.50;;;;;;;8.26;60.51;99497.66;4945427;28;124173;-77
2021/01/23 10:11:49;;;;;;;13.25;6.45;;;;;;;8.30;60.54;99499.16;4952499;28;114062;-76
2021/01/23 10:14:17;;;;;;;13.90;6.90;;;;;;;8.34;60.52;99497.19;4932044;28;113793;-76
2021/01/23 10:16:43;;;;;;;16.58;6.80;;;;;;;8.38;60.38;99491.69;4915207;28;122858;-76
2021/01/23 10:19:10;;;;;;;14.55;6.63;;;;;;;8.45;60.50;99491.34;4951809;28;123820;-76
2021/01/23 10:21:38;;;;;;;13.30;6.15;;;;;;;8.51;60.20;99490.97;4934444;28;114452;-76
2021/01/23 10:24:05;;;;;;;10.90;6.38;;;;;;;8.55;60.13;99488.09;4925527;28;113772;-77
2021/01/23 10:26:33;;;;;;;13.15;6.10;;;;;;;8.60;60.35;99485.16;4935946;28;122433;-76
2021/01/23 10:29:00;;;;;;;10.02;6.18;;;;;;;8.65;60.31;99493.69;4948835;28;123625;-77
2021/01/23 10:31:26;;;;;;;10.48;5.82;;;;;;;8.69;59.87;99487.28;4924148;28;114532;-77
2021/01/23 10:33:53;;;;;;;10.63;5.85;;;;;;;8.76;59.99;99490.41;4933716;28;112491;-77
2021/01/23 10:36:21;;;;;;;9.35;5.50;;;;;;;8.83;60.04;99485.59;4935462;28;123376;-78
2021/01/23 10:38:47;;;;;;;14.27;5.78;;;;;;;8.88;59.75;99483.53;4916286;28;122953;-77
2021/01/23 10:41:14;;;;;;;12.70;5.53;;;;;;;8.94;59.59;99477.88;4930549;28;115251;-77
2021/01/23 10:43:41;;;;;;;9.75;5.18;;;;;;;8.97;59.53;99477.72;4940865;28;114323;-77
2021/01/23 10:46:07;;;;;;;11.35;5.55;;;;;;;9.00;59.45;99472.22;4935727;28;123762;-78
2021/01/23 10:48:34;;;;;;;11.38;5.35;;;;;;;9.02;59.00;99474.78;4948567;28;124127;-77
2021/01/23 10:51:01;;;;;;;13.20;5.53;;;;;;;9.04;59.44;99476.41;4916990;28;112813;-77
2021/01/23 10:53:27;;;;;;;12.38;5.28;;;;;;;9.10;59.12;99473.38;4910058;28;113997;-77
2021/01/23 10:55:54;;;;;;;8.13;5.10;;;;;;;9.15;58.99;99481.00;4933581;28;123699;-78
2021/01/23 10:58:21;;;;;;;9.77;5.05;;;;;;;9.18;58.93;99485.28;4913429;28;123457;-77
2021/01/23 11:00:48;;;;;;;11.02;5.10;;;;;;;9.20;58.96;99480.75;4922098;28;113322;-76
2021/01/23 11:03:14;;;;;;;8.85;4.53;;;;;;;9.22;58.55;99481.50;4950950;28;114290;-76
2021/01/23 11:05:43;;;;;;;9.65;4.93;;;;;;;9.21;58.67;99480.66;4950166;28;124450;-77
2021/01/23 11:08:11;;;;;;;11.55;4.68;;;;;;;9.21;58.70;99479.78;4932849;28;124111;-77
2021/01/23 11:10:38;;;;;;;7.43;4.63;;;;;;;9.22;58.67;99470.94;4947497;28;113861;-77
2021/01/23 11:13:09;;;;;;;10.95;4.55;;;;;;;9.24;58.69;99471.69;4928652;28;114636;-77
2021/01/23 11:15:36;;;;;;;13.98;4.40;;;;;;;9.27;58.52;99463.56;4916981;28;123098;-77
2021/01/23 11:18:02;;;;;;;7.38;4.20;;;;;;;9.29;58.22;99464.31;4932810;28;123746;-79
2021/01/23 11:20:29;;;;;;;10.90;4.40;;;;;;;9.29;57.96;99453.75;4952881;28;114497;-77
2021/01/23 11:22:57;;;;;;;10.95;4.57;;;;;;;9.28;57.78;99454.69;4936520;28;114644;-77
2021/01/23 11:25:24;;;;;;;9.35;4.28;;;;;;;9.27;57.67;99453.00;4958837;22;123006;-71
2021/01/23 11:27:51;;;;;;;10.63;4.70;;;;;;;9.27;58.18;99453.00;4985735;28;124436;-71
2021/01/23 11:30:18;;;;;;;12.77;4.63;;;;;;;9.29;57.85;99443.19;4956631;28;113795;-70
2021/01/23 11:32:49;;;;;;;9.90;4.60;;;;;;;9.30;58.14;99443.06;4988891;28;114131;-71
2021/01/23 11:35:15;;;;;;;5.90;4.03;;;;;;;9.31;57.86;99449.22;4949929;28;122796;-71
2021/01/23 11:37:46;;;;;;;7.72;4.28;;;;;;;9.30;57.78;99453.63;4977631;28;122834;-71